createdAt,value
2023-04-26T00:01:58.880Z,97334.60
2023-04-26T00:04:26.032Z,97335.20
2023-04-26T00:06:52.918Z,97336.20
2023-04-26T00:09:19.747Z,97342.80
2023-04-26T00:11:46.798Z,97345.80
2023-04-26T00:14:13.856Z,97344.20
2023-04-26T00:16:40.660Z,97349.40
2023-04-26T00:19:07.483Z,97346.40
2023-04-26T00:21:34.145Z,97347.80
2023-04-26T00:24:00.851Z,97346.60
2023-04-26T00:26:27.534Z,97341.40
2023-04-26T00:28:54.772Z,97345.20
2023-04-26T00:31:21.811Z,97349.80
2023-04-26T00:33:48.773Z,97352.60
2023-04-26T00:36:19.269Z,97353.00
2023-04-26T00:38:46.927Z,97354.00
2023-04-26T00:41:14.348Z,97356.80
2023-04-26T00:43:41.306Z,97358.80
2023-04-26T00:46:10.367Z,97362.20
2023-04-26T00:48:38.147Z,97356.20
2023-04-26T00:51:06.985Z,97358.40
2023-04-26T00:53:35.491Z,97359.60
2023-04-26T00:56:03.511Z,97357.60
2023-04-26T00:58:30.756Z,97362.00
2023-04-26T01:00:57.478Z,97357.40
2023-04-26T01:03:25.228Z,97358.80
2023-04-26T01:05:53.288Z,97356.60
2023-04-26T01:08:21.893Z,97356.40
2023-04-26T01:10:50.851Z,97355.60
2023-04-26T01:13:17.740Z,97353.60
2023-04-26T01:15:48.331Z,97355.40
2023-04-26T01:18:15.439Z,97354.20
2023-04-26T01:20:43.128Z,97354.20
2023-04-26T01:23:11.801Z,97358.20
2023-04-26T01:25:39.221Z,97357.20
2023-04-26T01:28:06.160Z,97356.60
2023-04-26T01:30:33.159Z,97357.80
2023-04-26T01:33:03.126Z,97359.40
2023-04-26T01:35:30.110Z,97359.40
2023-04-26T01:37:56.739Z,97367.40
2023-04-26T01:40:23.382Z,97361.80
2023-04-26T01:42:50.090Z,97365.00
2023-04-26T01:45:17.549Z,97366.40
2023-04-26T01:48:02.871Z,97365.40
2023-04-26T01:50:31.948Z,97367.80
2023-04-26T01:52:58.615Z,97369.80
2023-04-26T01:55:25.316Z,97366.00
2023-04-26T01:57:52.003Z,97367.60
2023-04-26T02:00:19.357Z,97373.20
2023-04-26T02:02:49.273Z,97378.40
2023-04-26T02:05:16.243Z,97376.00
2023-04-26T02:07:42.908Z,97374.60
2023-04-26T02:10:09.745Z,97379.00
2023-04-26T02:12:36.530Z,97377.80
2023-04-26T02:15:03.546Z,97379.20
2023-04-26T02:17:30.837Z,97375.40
2023-04-26T02:19:58.498Z,97373.00
2023-04-26T02:22:25.425Z,97378.60
2023-04-26T02:24:53.088Z,97377.80
2023-04-26T02:27:20.232Z,97381.00
2023-04-26T02:29:47.410Z,97380.00
2023-04-26T02:32:14.702Z,97376.20
2023-04-26T02:34:43.143Z,97376.80
2023-04-26T02:37:10.097Z,97379.60
2023-04-26T02:39:36.805Z,97376.40
2023-04-26T02:42:03.871Z,97380.00
2023-04-26T02:44:31.152Z,97375.40
2023-04-26T02:46:58.040Z,97375.20
2023-04-26T02:49:24.922Z,97377.00
2023-04-26T02:51:51.992Z,97373.80
2023-04-26T02:54:18.957Z,97374.80
2023-04-26T02:56:45.644Z,97377.20
2023-04-26T02:59:12.364Z,97368.80
2023-04-26T03:01:39.092Z,97373.20
2023-04-26T03:04:06.658Z,97377.20
2023-04-26T03:06:34.504Z,97379.40
2023-04-26T03:09:01.445Z,97377.60
2023-04-26T03:11:28.069Z,97381.80
2023-04-26T03:13:54.706Z,97383.20
2023-04-26T03:16:23.702Z,97391.20
2023-04-26T03:18:51.102Z,97391.20
2023-04-26T03:21:18.155Z,97392.00
2023-04-26T03:23:45.071Z,97393.60
2023-04-26T03:26:12.003Z,97392.40
2023-04-26T03:28:38.883Z,97392.40
2023-04-26T03:31:05.595Z,97389.60
2023-04-26T03:33:32.250Z,97396.20
2023-04-26T03:35:58.985Z,97398.00
2023-04-26T03:38:26.134Z,97399.40
2023-04-26T03:40:52.830Z,97402.20
2023-04-26T03:43:19.454Z,97406.60
2023-04-26T03:45:49.493Z,97405.80
2023-04-26T03:48:17.269Z,97408.60
2023-04-26T03:50:46.146Z,97411.00
2023-04-26T03:53:14.645Z,97408.40
2023-04-26T03:55:42.093Z,97411.60
2023-04-26T03:58:09.616Z,97412.40
2023-04-26T04:00:41.238Z,97414.20
2023-04-26T04:03:08.596Z,97414.60
2023-04-26T04:05:35.885Z,97413.80
2023-04-26T04:08:03.810Z,97416.20
2023-04-26T04:10:30.943Z,97414.80
2023-04-26T04:12:57.607Z,97416.00
2023-04-26T04:15:24.680Z,97419.40
2023-04-26T04:17:51.410Z,97418.20
2023-04-26T04:20:18.448Z,97418.00
2023-04-26T04:22:45.263Z,97419.40
2023-04-26T04:25:12.165Z,97421.80
2023-04-26T04:27:42.671Z,97426.40
2023-04-26T04:30:10.460Z,97428.60
2023-04-26T04:32:38.095Z,97429.00
2023-04-26T04:35:07.263Z,97436.20
2023-04-26T04:37:34.966Z,97435.20
2023-04-26T04:40:02.464Z,97437.40
2023-04-26T04:42:32.287Z,97443.00
2023-04-26T04:44:59.863Z,97445.80
2023-04-26T04:47:27.698Z,97442.60
2023-04-26T04:49:54.820Z,97441.80
2023-04-26T04:52:21.965Z,97443.00
2023-04-26T04:54:48.897Z,97446.60
2023-04-26T04:57:16.797Z,97450.80
2023-04-26T04:59:44.898Z,97455.20
2023-04-26T05:02:11.609Z,97455.80
2023-04-26T05:04:38.646Z,97456.00
2023-04-26T05:07:09.235Z,97459.80
2023-04-26T05:09:37.110Z,97463.00
2023-04-26T05:12:05.240Z,97461.00
2023-04-26T05:14:31.997Z,97471.00
2023-04-26T05:16:58.820Z,97477.00
2023-04-26T05:19:26.135Z,97472.80
2023-04-26T05:21:53.420Z,97472.80
2023-04-26T05:24:20.126Z,97478.00
2023-04-26T05:26:47.543Z,97479.00
2023-04-26T05:29:41.817Z,97478.60
2023-04-26T05:32:27.224Z,97484.60
2023-04-26T05:35:23.163Z,97481.00
2023-04-26T05:37:49.974Z,97478.20
2023-04-26T05:40:18.374Z,97483.20
2023-04-26T05:42:45.190Z,97486.40
2023-04-26T05:45:12.385Z,97488.00
2023-04-26T05:47:39.920Z,97493.20
2023-04-26T05:50:09.180Z,97492.20
2023-04-26T05:52:35.958Z,97493.20
2023-04-26T05:55:04.319Z,97493.80
2023-04-26T05:57:31.117Z,97496.20
2023-04-26T05:59:57.990Z,97503.40
2023-04-26T06:02:26.063Z,97507.40
2023-04-26T06:04:54.274Z,97516.80
2023-04-26T06:07:21.330Z,97518.20
2023-04-26T06:09:48.567Z,97520.80
2023-04-26T06:12:16.700Z,97517.00
2023-04-26T06:14:44.284Z,97516.60
2023-04-26T06:17:15.063Z,97521.60
2023-04-26T06:19:42.841Z,97519.20
2023-04-26T06:22:09.598Z,97519.60
2023-04-26T06:24:36.268Z,97522.80
2023-04-26T06:27:02.917Z,97522.20
2023-04-26T06:29:33.151Z,97523.00
2023-04-26T06:31:59.910Z,97522.60
2023-04-26T06:34:27.240Z,97523.80
2023-04-26T06:36:54.039Z,97523.60
2023-04-26T06:39:22.365Z,97526.20
2023-04-26T06:41:50.465Z,97525.80
2023-04-26T06:44:25.768Z,97528.40
2023-04-26T06:46:55.672Z,97527.80
2023-04-26T06:49:23.309Z,97530.00
2023-04-26T06:51:52.753Z,97529.80
2023-04-26T06:54:19.994Z,97531.60
2023-04-26T06:56:46.756Z,97524.00
2023-04-26T06:59:13.412Z,97526.60
2023-04-26T07:01:41.173Z,97525.20
2023-04-26T07:04:10.649Z,97521.60
2023-04-26T07:06:39.123Z,97518.80
2023-04-26T07:09:05.731Z,97519.20
2023-04-26T07:11:32.458Z,97526.40
2023-04-26T07:13:59.139Z,97525.40
2023-04-26T07:16:27.379Z,97524.80
2023-04-26T07:18:58.059Z,97523.40
2023-04-26T07:21:26.799Z,97524.80
2023-04-26T07:23:58.043Z,97530.20
2023-04-26T07:26:26.693Z,97527.00
2023-04-26T07:28:54.000Z,97528.80
2023-04-26T07:31:21.548Z,97535.20
2023-04-26T07:33:48.582Z,97530.60
2023-04-26T07:36:15.332Z,97532.00
2023-04-26T07:38:42.493Z,97532.80
2023-04-26T07:41:09.208Z,97533.00
2023-04-26T07:43:36.065Z,97535.20
2023-04-26T07:46:02.794Z,97535.20
2023-04-26T07:48:29.546Z,97538.20
2023-04-26T07:50:56.711Z,97544.40
2023-04-26T07:53:23.470Z,97549.40
2023-04-26T07:55:54.777Z,97543.80
2023-04-26T07:58:21.648Z,97547.60
2023-04-26T08:00:48.380Z,97544.00
2023-04-26T08:03:17.887Z,97545.60
2023-04-26T08:05:45.643Z,97540.20
2023-04-26T08:08:12.785Z,97539.40
2023-04-26T08:10:42.820Z,97544.20
2023-04-26T08:13:09.453Z,97549.60
2023-04-26T08:15:36.172Z,97553.40
2023-04-26T08:18:02.955Z,97553.00
2023-04-26T08:20:29.663Z,97555.20
2023-04-26T08:22:57.111Z,97553.60
2023-04-26T08:25:24.688Z,97557.60
2023-04-26T08:27:52.523Z,97558.00
2023-04-26T08:30:19.630Z,97561.80
2023-04-26T08:32:47.060Z,97561.80
2023-04-26T08:35:13.846Z,97560.40
2023-04-26T08:37:40.858Z,97555.00
2023-04-26T08:40:11.734Z,97555.00
2023-04-26T08:42:44.352Z,97558.00
2023-04-26T08:45:11.697Z,97559.20
2023-04-26T08:48:04.591Z,97567.40
2023-04-26T08:50:34.612Z,97566.00
2023-04-26T08:53:01.908Z,97562.80
2023-04-26T08:55:29.549Z,97558.80
2023-04-26T08:57:56.979Z,97562.80
2023-04-26T09:00:24.217Z,97564.40
2023-04-26T09:02:52.923Z,97568.60
2023-04-26T09:05:24.822Z,97573.60
2023-04-26T09:07:57.505Z,97569.40
2023-04-26T09:10:24.379Z,97573.20
2023-04-26T09:12:54.643Z,97572.20
2023-04-26T09:15:23.764Z,97566.80
2023-04-26T09:17:51.943Z,97568.40
2023-04-26T09:20:29.159Z,97569.40
2023-04-26T09:23:09.932Z,97565.80
2023-04-26T09:25:37.630Z,97568.80
2023-04-26T09:28:23.333Z,97569.40
2023-04-26T09:30:50.505Z,97563.40
2023-04-26T09:33:17.308Z,97560.80
2023-04-26T09:35:44.723Z,97560.00
2023-04-26T09:38:14.290Z,97562.60
2023-04-26T09:40:50.114Z,97569.00
2023-04-26T09:43:20.706Z,97562.60
2023-04-26T09:45:56.227Z,97568.20
2023-04-26T09:48:34.981Z,97570.80
2023-04-26T09:51:04.366Z,97568.00
2023-04-26T09:53:37.422Z,97564.00
2023-04-26T09:56:15.678Z,97561.40
2023-04-26T09:58:52.493Z,97565.00
2023-04-26T10:01:20.208Z,97562.60
2023-04-26T10:03:47.711Z,97553.40
2023-04-26T10:06:15.810Z,97554.40
2023-04-26T10:08:43.242Z,97547.60
2023-04-26T10:11:13.919Z,97549.40
2023-04-26T10:13:42.973Z,97551.80
2023-04-26T10:16:10.248Z,97547.00
2023-04-26T10:18:37.608Z,97544.40
2023-04-26T10:21:26.265Z,97543.00
2023-04-26T10:23:53.537Z,97543.80
2023-04-26T10:26:54.984Z,97542.80
2023-04-26T10:29:26.223Z,97537.00
2023-04-26T10:32:02.207Z,97539.60
2023-04-26T10:34:31.300Z,97539.20
2023-04-26T10:37:10.078Z,97537.60
2023-04-26T10:39:38.674Z,97533.40
2023-04-26T10:42:25.650Z,97533.80
2023-04-26T10:44:58.660Z,97527.00
2023-04-26T10:47:38.893Z,97527.80
2023-04-26T10:50:09.166Z,97531.20
2023-04-26T10:52:41.105Z,97529.80
2023-04-26T10:55:08.489Z,97527.00
2023-04-26T10:57:54.285Z,97526.00
2023-04-26T11:00:31.691Z,97519.00
2023-04-26T11:03:09.594Z,97519.40
2023-04-26T11:05:55.408Z,97517.20
2023-04-26T11:08:27.546Z,97519.80
2023-04-26T11:11:03.431Z,97512.80
2023-04-26T11:13:42.711Z,97517.00
2023-04-26T11:16:15.237Z,97512.60
2023-04-26T11:18:45.064Z,97503.60
2023-04-26T11:21:17.395Z,97509.60
2023-04-26T11:23:54.239Z,97506.80
2023-04-26T11:26:21.121Z,97499.60
2023-04-26T11:28:49.336Z,97502.80
2023-04-26T11:31:19.352Z,97505.60
2023-04-26T11:33:49.196Z,97508.80
2023-04-26T11:36:17.653Z,97498.20
2023-04-26T11:38:44.363Z,97507.60
2023-04-26T11:41:11.451Z,97505.40
2023-04-26T11:43:39.912Z,97500.80
2023-04-26T11:46:10.714Z,97495.60
2023-04-26T11:48:39.045Z,97497.60
2023-04-26T11:51:08.187Z,97506.60
2023-04-26T11:53:43.214Z,97511.40
2023-04-26T11:56:23.023Z,97512.40
2023-04-26T11:58:52.399Z,97515.40
2023-04-26T12:01:27.441Z,97513.60
2023-04-26T12:03:57.492Z,97518.40
2023-04-26T12:06:41.678Z,97517.60
2023-04-26T12:09:09.374Z,97517.00
2023-04-26T12:11:35.967Z,97519.40
2023-04-26T12:14:03.096Z,97523.80
2023-04-26T12:16:29.748Z,97516.40
2023-04-26T12:18:57.122Z,97512.80
2023-04-26T12:21:28.192Z,97514.00
2023-04-26T12:23:56.967Z,97516.40
2023-04-26T12:26:43.580Z,97516.20
2023-04-26T12:29:10.612Z,97508.40
2023-04-26T12:31:37.549Z,97507.80
2023-04-26T12:34:04.290Z,97511.40
2023-04-26T12:36:31.668Z,97512.80
2023-04-26T12:38:58.308Z,97512.00
2023-04-26T12:41:24.946Z,97504.60
2023-04-26T12:43:51.512Z,97514.20
2023-04-26T12:46:18.373Z,97504.80
2023-04-26T12:48:45.029Z,97508.20
2023-04-26T12:51:11.602Z,97502.60
2023-04-26T12:53:38.183Z,97507.20
2023-04-26T12:56:05.714Z,97514.40
2023-04-26T12:58:32.354Z,97504.40
2023-04-26T13:00:58.961Z,97505.00
2023-04-26T13:03:25.818Z,97508.20
2023-04-26T13:05:52.633Z,97508.80
2023-04-26T13:08:21.745Z,97515.60
2023-04-26T13:10:48.328Z,97514.00
2023-04-26T13:13:15.012Z,97516.00
2023-04-26T13:15:41.788Z,97518.00
2023-04-26T13:18:08.677Z,97521.60
2023-04-26T13:20:36.165Z,97520.20
2023-04-26T13:23:03.100Z,97520.80
2023-04-26T13:25:30.061Z,97521.60
2023-04-26T13:27:56.628Z,97522.80
2023-04-26T13:30:23.244Z,97518.00
2023-04-26T13:32:50.086Z,97516.20
2023-04-26T13:35:17.043Z,97517.60
2023-04-26T13:37:43.654Z,97517.60
2023-04-26T13:40:11.404Z,97516.80
2023-04-26T13:42:39.351Z,97516.20
2023-04-26T13:45:09.419Z,97510.40
2023-04-26T13:47:36.884Z,97509.60
2023-04-26T13:50:04.546Z,97507.00
2023-04-26T13:52:31.209Z,97508.60
2023-04-26T13:54:57.911Z,97512.00
2023-04-26T13:57:24.603Z,97506.80
2023-04-26T13:59:51.321Z,97495.60
2023-04-26T14:02:18.206Z,97497.80
2023-04-26T14:04:45.449Z,97499.80
2023-04-26T14:07:12.218Z,97495.00
2023-04-26T14:09:38.904Z,97494.00
2023-04-26T14:12:08.929Z,97492.40
2023-04-26T14:14:37.161Z,97493.00
2023-04-26T14:17:03.951Z,97497.20
2023-04-26T14:19:31.336Z,97501.00
2023-04-26T14:21:57.989Z,97491.80
2023-04-26T14:24:24.733Z,97494.80
2023-04-26T14:26:51.564Z,97492.80
2023-04-26T14:29:18.178Z,97498.00
2023-04-26T14:31:45.388Z,97492.80
2023-04-26T14:34:13.440Z,97488.00
2023-04-26T14:36:40.127Z,97486.60
2023-04-26T14:39:07.301Z,97491.00
2023-04-26T14:41:33.921Z,97489.20
2023-04-26T14:44:00.787Z,97490.00
2023-04-26T14:46:28.018Z,97491.40
2023-04-26T14:48:55.500Z,97489.80
2023-04-26T14:51:23.005Z,97492.00
2023-04-26T14:53:49.586Z,97486.60
2023-04-26T14:56:16.355Z,97483.40
2023-04-26T14:58:42.957Z,97485.60
2023-04-26T15:01:10.423Z,97479.80
2023-04-26T15:03:37.444Z,97483.80
2023-04-26T15:06:04.396Z,97483.20
2023-04-26T15:08:31.554Z,97486.80
2023-04-26T15:10:58.134Z,97481.60
2023-04-26T15:13:24.723Z,97483.80
2023-04-26T15:15:51.331Z,97480.60
2023-04-26T15:18:18.628Z,97481.60
2023-04-26T15:20:45.477Z,97484.00
2023-04-26T15:23:12.110Z,97479.00
2023-04-26T15:25:38.773Z,97479.60
2023-04-26T15:28:05.788Z,97481.80
2023-04-26T15:30:32.520Z,97481.80
2023-04-26T15:33:00.318Z,97485.40
2023-04-26T15:35:27.124Z,97485.20
2023-04-26T15:37:54.154Z,97484.20
2023-04-26T15:40:27.696Z,97486.00
2023-04-26T15:42:54.606Z,97486.60
2023-04-26T15:45:21.277Z,97484.20
2023-04-26T15:47:47.934Z,97485.20
2023-04-26T15:50:14.836Z,97485.40
2023-04-26T15:52:42.212Z,97481.00
2023-04-26T15:55:09.959Z,97478.20
2023-04-26T15:57:37.829Z,97474.80
2023-04-26T16:00:08.366Z,97475.40
2023-04-26T16:02:35.580Z,97470.20
2023-04-26T16:05:02.670Z,97471.00
2023-04-26T16:07:29.964Z,97474.00
2023-04-26T16:09:56.560Z,97471.20
2023-04-26T16:12:23.112Z,97467.40
2023-04-26T16:14:51.252Z,97462.60
2023-04-26T16:17:17.982Z,97460.60
2023-04-26T16:19:44.614Z,97458.80
2023-04-26T16:22:11.263Z,97457.80
2023-04-26T16:24:37.886Z,97453.00
2023-04-26T16:27:04.741Z,97456.00
2023-04-26T16:29:31.656Z,97454.00
2023-04-26T16:31:58.502Z,97458.40
2023-04-26T16:34:26.818Z,97455.40
2023-04-26T16:36:53.411Z,97455.60
2023-04-26T16:39:20.381Z,97462.00
2023-04-26T16:41:46.996Z,97452.80
2023-04-26T16:44:13.665Z,97457.80
2023-04-26T16:46:43.447Z,97458.20
2023-04-26T16:49:10.834Z,97463.40
2023-04-26T16:51:38.021Z,97465.60
2023-04-26T16:54:05.155Z,97470.80
2023-04-26T16:56:32.400Z,97472.60
2023-04-26T16:58:59.486Z,97474.60
2023-04-26T17:01:26.800Z,97474.00
2023-04-26T17:03:54.589Z,97473.80
2023-04-26T17:06:21.468Z,97474.80
2023-04-26T17:08:48.276Z,97472.40
2023-04-26T17:11:16.601Z,97472.60
2023-04-26T17:13:44.075Z,97470.20
2023-04-26T17:16:11.370Z,97475.20
2023-04-26T17:18:38.594Z,97481.00
2023-04-26T17:21:07.057Z,97480.80
2023-04-26T17:23:34.446Z,97483.60
2023-04-26T17:26:01.829Z,97479.80
2023-04-26T17:28:29.149Z,97490.60
2023-04-26T17:30:55.917Z,97492.00
2023-04-26T17:33:23.345Z,97490.80
2023-04-26T17:35:50.159Z,97496.80
2023-04-26T17:38:17.062Z,97498.60
2023-04-26T17:40:43.670Z,97503.60
2023-04-26T17:43:11.298Z,97502.40
2023-04-26T17:45:37.931Z,97505.80
2023-04-26T17:48:05.426Z,97513.80
2023-04-26T17:50:32.134Z,97519.80
2023-04-26T17:52:58.768Z,97523.00
2023-04-26T17:55:25.462Z,97522.60
2023-04-26T17:57:52.176Z,97518.20
2023-04-26T18:00:19.444Z,97520.60
2023-04-26T18:02:46.314Z,97527.00
2023-04-26T18:05:13.414Z,97531.20
2023-04-26T18:07:40.177Z,97531.80
2023-04-26T18:10:08.091Z,97525.80
2023-04-26T18:12:36.185Z,97526.60
2023-04-26T18:15:02.870Z,97530.20
2023-04-26T18:17:29.722Z,97529.00
2023-04-26T18:19:56.438Z,97530.60
2023-04-26T18:22:23.096Z,97529.20
2023-04-26T18:24:49.781Z,97531.20
2023-04-26T18:27:16.464Z,97538.20
2023-04-26T18:29:43.957Z,97544.60
2023-04-26T18:32:10.655Z,97543.00
2023-04-26T18:34:37.333Z,97545.00
2023-04-26T18:37:04.788Z,97546.20
2023-04-26T18:39:31.795Z,97550.20
2023-04-26T18:41:58.534Z,97550.60
2023-04-26T18:44:25.164Z,97558.20
2023-04-26T18:46:55.610Z,97559.80
2023-04-26T18:49:23.631Z,97562.00
2023-04-26T18:51:50.343Z,97563.40
2023-04-26T18:54:17.044Z,97568.00
2023-04-26T18:56:44.059Z,97567.60
2023-04-26T18:59:11.371Z,97574.40
2023-04-26T19:01:38.683Z,97577.80
2023-04-26T19:04:05.997Z,97574.80
2023-04-26T19:06:33.173Z,97575.00
2023-04-26T19:09:00.966Z,97583.80
2023-04-26T19:11:27.643Z,97583.00
2023-04-26T19:13:54.274Z,97580.40
2023-04-26T19:16:24.060Z,97577.60
2023-04-26T19:18:51.958Z,97580.80
2023-04-26T19:21:18.709Z,97574.20
2023-04-26T19:23:46.732Z,97576.60
2023-04-26T19:26:13.519Z,97577.40
2023-04-26T19:28:40.828Z,97573.60
2023-04-26T19:31:07.668Z,97579.20
2023-04-26T19:33:34.582Z,97583.60
2023-04-26T19:36:01.201Z,97585.60
2023-04-26T19:38:28.666Z,97587.80
2023-04-26T19:40:55.300Z,97586.20
2023-04-26T19:43:21.951Z,97582.40
2023-04-26T19:45:48.582Z,97579.20
2023-04-26T19:48:15.412Z,97580.00
2023-04-26T19:50:46.744Z,97579.80
2023-04-26T19:53:15.041Z,97582.80
2023-04-26T19:55:42.709Z,97584.60
2023-04-26T19:58:11.020Z,97589.20
2023-04-26T20:00:38.774Z,97591.00
2023-04-26T20:03:06.694Z,97594.80
2023-04-26T20:05:33.774Z,97594.80
2023-04-26T20:08:01.379Z,97595.20
2023-04-26T20:10:34.027Z,97599.40
2023-04-26T20:13:01.424Z,97600.80
2023-04-26T20:15:29.372Z,97598.40
2023-04-26T20:17:57.178Z,97595.60
2023-04-26T20:20:24.343Z,97594.60
2023-04-26T20:22:51.133Z,97594.80
2023-04-26T20:25:19.891Z,97596.80
2023-04-26T20:27:47.817Z,97598.40
2023-04-26T20:30:15.799Z,97594.20
2023-04-26T20:32:43.370Z,97597.40
2023-04-26T20:35:10.218Z,97600.60
2023-04-26T20:37:36.954Z,97597.00
2023-04-26T20:40:04.990Z,97597.80
2023-04-26T20:42:32.170Z,97599.80
2023-04-26T20:45:01.244Z,97600.80
2023-04-26T20:47:28.850Z,97602.00
2023-04-26T20:49:55.622Z,97602.00
2023-04-26T20:52:22.217Z,97601.40
2023-04-26T20:54:49.017Z,97598.40
2023-04-26T20:57:16.068Z,97601.20
2023-04-26T20:59:42.844Z,97599.00
2023-04-26T21:02:10.074Z,97602.20
2023-04-26T21:04:38.834Z,97600.00
2023-04-26T21:07:05.762Z,97597.40
2023-04-26T21:09:32.552Z,97599.40
2023-04-26T21:11:59.159Z,97604.00
2023-04-26T21:14:26.209Z,97605.80
2023-04-26T21:16:52.788Z,97610.40
2023-04-26T21:19:20.141Z,97610.00
2023-04-26T21:21:46.934Z,97606.60
2023-04-26T21:24:13.693Z,97593.40
2023-04-26T21:26:40.349Z,97598.20
2023-04-26T21:29:07.691Z,97604.40
2023-04-26T21:31:35.018Z,97611.00
2023-04-26T21:34:01.987Z,97619.40
2023-04-26T21:36:28.577Z,97616.40
2023-04-26T21:38:55.183Z,97613.20
2023-04-26T21:41:23.434Z,97617.80
2023-04-26T21:43:50.393Z,97613.80
2023-04-26T21:46:17.073Z,97619.40
2023-04-26T21:48:44.735Z,97614.80
2023-04-26T21:51:11.722Z,97626.40
2023-04-26T21:53:38.348Z,97628.80
2023-04-26T21:56:06.659Z,97634.00
2023-04-26T21:58:33.467Z,97634.20
2023-04-26T22:01:12.738Z,97633.00
2023-04-26T22:03:39.842Z,97631.80
2023-04-26T22:06:09.464Z,97631.60
2023-04-26T22:08:36.207Z,97635.80
2023-04-26T22:11:03.167Z,97634.20
2023-04-26T22:13:31.494Z,97635.60
2023-04-26T22:15:58.509Z,97634.60
2023-04-26T22:18:26.463Z,97634.60
2023-04-26T22:20:53.596Z,97637.40
2023-04-26T22:23:20.520Z,97635.60
2023-04-26T22:25:47.132Z,97636.40
2023-04-26T22:28:13.738Z,97641.00
2023-04-26T22:30:40.354Z,97648.60
2023-04-26T22:33:07.199Z,97650.40
2023-04-26T22:35:34.816Z,97654.80
2023-04-26T22:38:01.421Z,97659.00
2023-04-26T22:40:28.015Z,97661.60
2023-04-26T22:42:54.667Z,97665.60
2023-04-26T22:45:21.507Z,97670.40
2023-04-26T22:47:48.157Z,97667.60
2023-04-26T22:50:14.920Z,97672.80
2023-04-26T22:52:41.544Z,97673.40
2023-04-26T22:55:09.175Z,97674.20
2023-04-26T22:57:35.778Z,97673.20
2023-04-26T23:00:02.670Z,97673.60
2023-04-26T23:02:29.443Z,97675.60
2023-04-26T23:04:56.723Z,97677.40
2023-04-26T23:07:23.477Z,97678.80
2023-04-26T23:09:50.129Z,97682.40
2023-04-26T23:12:19.903Z,97684.60
2023-04-26T23:14:47.930Z,97685.80
2023-04-26T23:17:14.518Z,97688.20
2023-04-26T23:19:42.322Z,97686.40
2023-04-26T23:22:09.069Z,97687.80
2023-04-26T23:24:35.746Z,97693.40
2023-04-26T23:27:02.747Z,97700.60
2023-04-26T23:29:29.385Z,97701.40
2023-04-26T23:31:56.316Z,97705.60
2023-04-26T23:34:23.629Z,97703.00
2023-04-26T23:36:50.205Z,97703.80
2023-04-26T23:39:16.891Z,97706.20
2023-04-26T23:41:43.769Z,97699.00
2023-04-26T23:44:10.717Z,97698.40
2023-04-26T23:46:37.334Z,97701.60
2023-04-26T23:49:04.083Z,97696.60
2023-04-26T23:51:32.409Z,97698.20
2023-04-26T23:53:59.027Z,97694.80
2023-04-26T23:56:25.861Z,97694.40
2023-04-26T23:58:52.476Z,97697.40
